createdAt,value
2018-08-24T00:00:06.252Z,64.17
2018-08-24T00:02:35.482Z,65.07
2018-08-24T00:05:04.692Z,65.18
2018-08-24T00:07:33.861Z,65.29
2018-08-24T00:10:03.048Z,65.50
2018-08-24T00:12:32.393Z,64.44
2018-08-24T00:15:01.597Z,62.99
2018-08-24T00:17:31.741Z,62.76
2018-08-24T00:20:01.681Z,62.39
2018-08-24T00:22:31.645Z,63.12
2018-08-24T00:25:00.888Z,61.86
2018-08-24T00:27:30.040Z,63.14
2018-08-24T00:29:59.200Z,62.87
2018-08-24T00:32:28.475Z,63.16
2018-08-24T00:34:57.699Z,63.57
2018-08-24T00:37:27.471Z,64.43
2018-08-24T00:39:56.632Z,64.53
2018-08-24T00:42:25.797Z,64.71
2018-08-24T00:44:54.960Z,64.93
2018-08-24T00:47:24.196Z,65.87
2018-08-24T00:49:53.350Z,66.75
2018-08-24T00:52:21.975Z,66.17
2018-08-24T00:54:50.569Z,67.50
2018-08-24T00:57:19.270Z,67.92
2018-08-24T00:59:47.932Z,67.72
2018-08-24T01:02:16.545Z,68.00
2018-08-24T01:04:45.136Z,68.45
2018-08-24T01:07:14.773Z,68.90
2018-08-24T01:09:43.943Z,68.67
2018-08-24T01:12:15.584Z,68.93
2018-08-24T01:14:46.343Z,68.96
2018-08-24T01:17:20.210Z,68.31
2018-08-24T01:19:49.224Z,69.05
2018-08-24T01:22:18.184Z,67.92
2018-08-24T01:24:46.763Z,67.87
2018-08-24T01:27:15.374Z,67.96
2018-08-24T01:29:44.296Z,67.96
2018-08-24T01:32:14.684Z,68.02
2018-08-24T01:34:43.368Z,66.35
2018-08-24T01:37:11.935Z,66.65
2018-08-24T01:39:40.574Z,65.71
2018-08-24T01:42:09.144Z,65.49
2018-08-24T01:44:37.804Z,65.11
2018-08-24T01:47:06.840Z,65.22
2018-08-24T01:49:35.685Z,65.22
2018-08-24T01:52:04.800Z,65.08
2018-08-24T01:54:35.990Z,65.07
2018-08-24T01:57:04.725Z,65.11
2018-08-24T01:59:33.460Z,64.92
2018-08-24T02:02:02.195Z,65.67
2018-08-24T02:04:32.954Z,64.62
2018-08-24T02:07:01.718Z,63.83
2018-08-24T02:09:30.596Z,63.77
2018-08-24T02:11:59.580Z,63.61
2018-08-24T02:14:33.620Z,62.52
2018-08-24T02:17:02.511Z,62.89
2018-08-24T02:19:36.340Z,62.48
2018-08-24T02:22:10.085Z,62.58
2018-08-24T02:24:38.760Z,62.72
2018-08-24T02:27:07.592Z,62.12
2018-08-24T02:29:38.476Z,63.29
2018-08-24T02:32:07.772Z,63.67
2018-08-24T02:34:36.387Z,65.09
2018-08-24T02:37:05.087Z,65.54
2018-08-24T02:39:35.952Z,64.85
2018-08-24T02:42:04.543Z,65.31
2018-08-24T02:44:33.109Z,65.54
2018-08-24T02:47:01.976Z,66.96
2018-08-24T02:49:30.586Z,67.27
2018-08-24T02:51:59.452Z,68.83
2018-08-24T02:54:28.064Z,69.45
2018-08-24T02:56:56.666Z,70.13
2018-08-24T02:59:25.412Z,70.70
2018-08-24T03:01:53.993Z,71.04
2018-08-24T03:04:22.652Z,71.30
2018-08-24T03:06:51.348Z,70.63
2018-08-24T03:09:21.755Z,71.02
2018-08-24T03:11:51.240Z,70.67
2018-08-24T03:14:19.969Z,69.87
2018-08-24T03:16:53.996Z,70.57
2018-08-24T03:19:22.659Z,70.93
2018-08-24T03:21:51.348Z,71.28
2018-08-24T03:24:19.986Z,71.85
2018-08-24T03:26:48.701Z,71.54
2018-08-24T03:29:17.341Z,72.58
2018-08-24T03:31:47.021Z,72.18
2018-08-24T03:34:15.616Z,71.91
2018-08-24T03:36:44.244Z,71.11
2018-08-24T03:39:12.904Z,70.02
2018-08-24T03:41:41.796Z,69.95
2018-08-24T03:44:10.439Z,69.94
2018-08-24T03:46:39.069Z,70.23
2018-08-24T03:49:07.673Z,70.62
2018-08-24T03:51:36.240Z,70.87
2018-08-24T03:54:09.224Z,70.50
2018-08-24T03:56:38.243Z,71.67
2018-08-24T03:59:06.821Z,71.87
2018-08-24T04:01:35.460Z,72.05
2018-08-24T04:04:04.323Z,72.55
2018-08-24T04:06:32.960Z,72.53
2018-08-24T04:09:01.534Z,72.93
2018-08-24T04:11:30.212Z,73.19
2018-08-24T04:13:58.867Z,72.29
2018-08-24T04:16:27.696Z,72.05
2018-08-24T04:18:56.310Z,70.50
2018-08-24T04:21:24.892Z,71.04
2018-08-24T04:23:53.485Z,70.03
2018-08-24T04:26:22.188Z,70.62
2018-08-24T04:28:50.805Z,70.05
2018-08-24T04:31:19.425Z,70.33
2018-08-24T04:33:48.143Z,69.52
2018-08-24T04:36:16.712Z,70.01
2018-08-24T04:38:45.365Z,70.06
2018-08-24T04:41:14.315Z,69.08
2018-08-24T04:43:42.993Z,68.56
2018-08-24T04:46:11.648Z,68.21
2018-08-24T04:48:40.303Z,68.03
2018-08-24T04:51:08.934Z,66.86
2018-08-24T04:53:37.748Z,64.89
2018-08-24T04:56:07.636Z,63.75
2018-08-24T04:58:36.403Z,64.15
2018-08-24T05:01:05.022Z,62.78
2018-08-24T05:03:34.277Z,62.34
2018-08-24T05:06:03.289Z,61.33
2018-08-24T05:08:32.734Z,61.38
2018-08-24T05:11:01.969Z,61.42
2018-08-24T05:13:31.535Z,60.55
2018-08-24T05:16:01.411Z,60.47
2018-08-24T05:18:30.576Z,60.60
2018-08-24T05:20:59.800Z,60.89
2018-08-24T05:23:28.968Z,59.80
2018-08-24T05:25:58.108Z,60.16
2018-08-24T05:28:27.330Z,59.65
2018-08-24T05:30:56.722Z,60.14
2018-08-24T05:33:26.137Z,59.09
2018-08-24T05:35:55.303Z,59.46
2018-08-24T05:38:24.476Z,58.34
2018-08-24T05:40:53.700Z,57.58
2018-08-24T05:43:22.884Z,57.19
2018-08-24T05:45:52.144Z,56.14
2018-08-24T05:48:21.498Z,56.33
2018-08-24T05:50:50.709Z,54.29
2018-08-24T05:53:19.868Z,53.44
2018-08-24T05:55:49.049Z,49.47
2018-08-24T05:58:18.462Z,46.01
2018-08-24T06:00:47.625Z,41.44
2018-08-24T06:03:16.831Z,40.06
2018-08-24T06:05:51.303Z,37.31
2018-08-24T06:08:20.594Z,35.73
2018-08-24T06:10:49.916Z,34.46
2018-08-24T06:13:19.921Z,33.24
2018-08-24T06:15:50.194Z,32.46
2018-08-24T06:18:19.581Z,29.99
2018-08-24T06:20:48.719Z,28.71
2018-08-24T06:23:17.995Z,27.11
2018-08-24T06:25:46.912Z,27.01
2018-08-24T06:28:15.852Z,27.93
2018-08-24T06:30:44.732Z,26.87
2018-08-24T06:33:13.821Z,25.63
2018-08-24T06:35:42.680Z,26.14
2018-08-24T06:38:11.559Z,25.50
2018-08-24T06:40:41.070Z,25.32
2018-08-24T06:43:10.121Z,25.16
2018-08-24T06:45:39.003Z,25.24
2018-08-24T06:48:07.880Z,23.79
2018-08-24T06:50:36.766Z,22.70
2018-08-24T06:53:05.860Z,22.94
2018-08-24T06:55:34.909Z,21.54
2018-08-24T06:58:04.199Z,22.84
2018-08-24T07:00:33.868Z,22.31
2018-08-24T07:03:03.157Z,23.53
2018-08-24T07:05:32.482Z,24.58
2018-08-24T07:08:01.426Z,24.28
2018-08-24T07:10:30.557Z,24.30
2018-08-24T07:12:59.602Z,23.38
2018-08-24T07:15:28.710Z,23.81
2018-08-24T07:18:03.764Z,22.47
2018-08-24T07:20:32.904Z,22.66
2018-08-24T07:23:01.915Z,21.53
2018-08-24T07:25:30.784Z,20.27
2018-08-24T07:27:59.789Z,22.88
2018-08-24T07:30:28.799Z,23.56
2018-08-24T07:32:57.760Z,25.35
2018-08-24T07:35:26.698Z,25.06
2018-08-24T07:37:55.646Z,25.13
2018-08-24T07:40:24.560Z,27.02
2018-08-24T07:42:53.483Z,24.94
2018-08-24T07:45:22.357Z,23.94
2018-08-24T07:47:51.249Z,22.15
2018-08-24T07:50:20.153Z,20.83
2018-08-24T07:52:49.076Z,20.46
2018-08-24T07:55:17.984Z,19.14
2018-08-24T07:57:46.863Z,18.44
2018-08-24T08:00:15.804Z,18.63
2018-08-24T08:02:45.238Z,18.92
2018-08-24T08:05:14.561Z,19.96
2018-08-24T08:07:43.791Z,20.95
2018-08-24T08:10:12.724Z,22.90
2018-08-24T08:12:41.644Z,22.87
2018-08-24T08:15:11.487Z,24.10
2018-08-24T08:17:41.781Z,23.99
2018-08-24T08:20:11.144Z,25.29
2018-08-24T08:22:40.204Z,26.31
2018-08-24T08:25:09.172Z,25.68
2018-08-24T08:27:38.105Z,28.74
2018-08-24T08:30:07.472Z,29.86
2018-08-24T08:32:36.436Z,32.35
2018-08-24T08:35:06.325Z,34.83
2018-08-24T08:37:35.508Z,40.30
2018-08-24T08:40:04.808Z,45.79
2018-08-24T08:42:33.972Z,48.92
2018-08-24T08:45:03.248Z,49.75
2018-08-24T08:47:32.513Z,52.64
2018-08-24T08:50:01.933Z,58.42
2018-08-24T08:52:31.093Z,57.61
2018-08-24T08:55:00.244Z,59.39
2018-08-24T08:57:29.646Z,59.82
2018-08-24T08:59:58.908Z,60.15
2018-08-24T09:02:28.136Z,60.75
2018-08-24T09:04:57.295Z,60.08
2018-08-24T09:07:26.737Z,60.80
2018-08-24T09:09:56.504Z,61.10
2018-08-24T09:12:25.692Z,61.37
2018-08-24T09:14:55.012Z,63.53
2018-08-24T09:17:29.575Z,62.49
2018-08-24T09:20:04.070Z,59.09
2018-08-24T09:23:38.243Z,56.33
2018-08-24T09:26:12.953Z,52.85
2018-08-24T09:28:42.352Z,54.63
2018-08-24T09:31:18.092Z,52.45
2018-08-24T09:33:47.881Z,49.70
2018-08-24T09:36:19.453Z,50.52
2018-08-24T09:38:49.542Z,48.12
2018-08-24T09:41:18.776Z,47.12
2018-08-24T09:43:53.313Z,46.42
2018-08-24T09:46:27.847Z,46.48
2018-08-24T09:49:02.394Z,47.06
2018-08-24T09:51:31.887Z,44.60
2018-08-24T09:54:01.674Z,43.42
2018-08-24T09:56:31.976Z,42.59
2018-08-24T09:59:01.570Z,43.74
2018-08-24T10:01:35.998Z,43.82
2018-08-24T10:04:10.606Z,42.68
2018-08-24T10:06:45.062Z,42.35
2018-08-24T10:09:15.389Z,42.15
2018-08-24T10:11:44.664Z,42.32
2018-08-24T10:14:13.845Z,41.75
2018-08-24T10:16:43.344Z,39.65
2018-08-24T10:19:13.736Z,39.34
2018-08-24T10:21:43.104Z,39.44
2018-08-24T10:24:12.427Z,39.68
2018-08-24T10:26:41.692Z,40.54
2018-08-24T10:29:10.919Z,41.31
2018-08-24T10:31:40.256Z,39.60
2018-08-24T10:34:09.453Z,40.15
2018-08-24T10:36:38.802Z,38.94
2018-08-24T10:39:10.351Z,39.62
2018-08-24T10:41:39.928Z,38.39
2018-08-24T10:44:09.242Z,37.87
2018-08-24T11:00:19.156Z,39.09
2018-08-24T11:02:48.325Z,39.06
2018-08-24T11:05:17.546Z,38.62
2018-08-24T11:07:46.802Z,38.58
2018-08-24T11:10:16.213Z,38.92
2018-08-24T11:12:45.675Z,39.84
2018-08-24T11:15:14.857Z,39.62
2018-08-24T11:17:49.513Z,38.97
2018-08-24T11:20:18.759Z,39.55
2018-08-24T11:22:48.130Z,38.78
2018-08-24T11:25:17.310Z,39.60
2018-08-24T11:27:46.563Z,39.62
2018-08-24T11:30:15.820Z,40.49
2018-08-24T11:32:45.059Z,40.68
2018-08-24T11:35:14.329Z,42.35
2018-08-24T11:37:43.536Z,40.28
2018-08-24T11:40:12.692Z,40.85
2018-08-24T11:42:41.889Z,39.74
2018-08-24T11:45:11.233Z,40.24
2018-08-24T11:47:40.424Z,40.82
2018-08-24T11:50:09.800Z,40.04
2018-08-24T11:52:38.998Z,40.57
2018-08-24T11:55:08.245Z,41.17
2018-08-24T11:57:37.411Z,41.88
2018-08-24T12:00:06.836Z,41.63
2018-08-24T12:02:36.032Z,42.36
2018-08-24T12:05:05.684Z,42.54
2018-08-24T12:07:34.983Z,42.08
2018-08-24T12:10:04.756Z,43.03
2018-08-24T12:12:34.034Z,43.48
2018-08-24T12:15:03.410Z,42.91
2018-08-24T12:17:35.432Z,44.22
2018-08-24T12:20:05.837Z,46.78
2018-08-24T12:22:35.658Z,48.68
2018-08-24T12:25:05.443Z,51.37
2018-08-24T12:27:34.760Z,54.18
2018-08-24T12:30:04.154Z,56.53
2018-08-24T12:32:33.368Z,61.55
2018-08-24T12:35:02.752Z,62.65
2018-08-24T12:37:36.212Z,65.06
2018-08-24T12:40:05.741Z,63.25
2018-08-24T12:42:34.894Z,60.86
2018-08-24T12:45:04.389Z,63.74
2018-08-24T12:47:33.635Z,59.99
2018-08-24T12:50:02.890Z,66.27
2018-08-24T12:52:32.213Z,66.51
2018-08-24T12:55:02.029Z,62.13
2018-08-24T12:57:31.711Z,62.60
2018-08-24T13:00:01.637Z,59.58
2018-08-24T13:02:30.937Z,61.08
2018-08-24T13:05:00.093Z,57.41
2018-08-24T13:07:29.299Z,58.09
2018-08-24T13:09:59.081Z,56.17
2018-08-24T13:12:28.375Z,57.02
2018-08-24T13:14:58.080Z,55.91
2018-08-24T13:17:27.295Z,52.97
2018-08-24T13:19:56.508Z,51.45
2018-08-24T13:22:25.768Z,53.51
2018-08-24T13:24:55.011Z,52.62
2018-08-24T13:27:24.405Z,52.83
2018-08-24T13:29:53.689Z,52.67
2018-08-24T13:32:22.960Z,51.40
2018-08-24T13:34:52.210Z,51.77
2018-08-24T13:37:21.490Z,51.35
2018-08-24T13:39:50.873Z,51.40
2018-08-24T13:42:20.152Z,51.78
2018-08-24T13:44:49.407Z,48.51
2018-08-24T13:47:18.636Z,48.71
2018-08-24T13:49:48.155Z,48.50
2018-08-24T13:52:17.364Z,47.48
2018-08-24T13:54:47.324Z,48.26
2018-08-24T13:57:16.791Z,47.35
2018-08-24T13:59:45.983Z,47.30
2018-08-24T14:02:15.408Z,47.01
2018-08-24T14:04:44.608Z,47.47
2018-08-24T14:07:13.857Z,48.47
2018-08-24T14:09:43.120Z,47.12
2018-08-24T14:12:12.281Z,46.77
2018-08-24T14:14:41.564Z,48.41
2018-08-24T14:17:10.800Z,47.87
2018-08-24T14:19:40.028Z,47.85
2018-08-24T14:22:09.536Z,49.05
2018-08-24T14:24:38.917Z,51.64
2018-08-24T14:27:08.273Z,50.48
2018-08-24T14:29:37.460Z,49.43
2018-08-24T14:32:06.812Z,50.42
2018-08-24T14:34:35.979Z,49.56
2018-08-24T14:37:05.668Z,49.06
2018-08-24T14:39:35.308Z,49.44
2018-08-24T14:42:04.541Z,47.63
2018-08-24T14:44:33.724Z,47.35
2018-08-24T14:47:02.948Z,48.63
2018-08-24T14:49:32.184Z,46.77
2018-08-24T14:52:01.344Z,45.42
2018-08-24T14:54:30.544Z,46.25
2018-08-24T14:57:00.032Z,46.08
2018-08-24T14:59:29.208Z,45.28
2018-08-24T15:01:58.413Z,45.18
2018-08-24T15:04:27.666Z,44.25
2018-08-24T15:06:57.094Z,44.72
2018-08-24T15:09:26.408Z,44.66
2018-08-24T15:11:55.796Z,44.54
2018-08-24T15:14:25.039Z,45.36
2018-08-24T15:16:54.253Z,45.84
2018-08-24T15:19:23.692Z,46.87
2018-08-24T15:21:53.032Z,46.74
2018-08-24T15:24:22.361Z,47.59
2018-08-24T15:26:51.561Z,48.29
2018-08-24T15:29:20.983Z,48.35
2018-08-24T15:31:50.470Z,48.91
2018-08-24T15:34:19.631Z,48.92
2018-08-24T15:36:48.798Z,49.33
2018-08-24T15:39:18.080Z,49.89
2018-08-24T15:41:47.908Z,49.59
2018-08-24T15:44:17.109Z,49.39
2018-08-24T15:46:46.428Z,49.83
2018-08-24T15:49:15.592Z,50.20
2018-08-24T15:51:44.900Z,51.26
2018-08-24T15:54:14.089Z,52.26
2018-08-24T15:56:43.327Z,52.90
2018-08-24T15:59:12.580Z,53.08
2018-08-24T16:01:41.754Z,54.17
2018-08-24T16:04:10.943Z,54.77
2018-08-24T16:06:40.308Z,55.46
2018-08-24T16:09:10.566Z,56.47
2018-08-24T16:11:40.006Z,58.75
2018-08-24T16:14:09.413Z,65.79
2018-08-24T16:16:39.176Z,67.69
2018-08-24T16:19:09.556Z,71.38
2018-08-24T16:21:38.788Z,74.70
2018-08-24T16:24:08.035Z,76.48
2018-08-24T16:26:37.280Z,78.58
2018-08-24T16:29:06.955Z,79.20
2018-08-24T16:31:36.154Z,80.65
2018-08-24T16:34:05.500Z,81.85
2018-08-24T16:36:34.660Z,83.67
2018-08-24T16:39:04.467Z,84.28
2018-08-24T16:41:33.704Z,85.26
2018-08-24T16:44:02.888Z,86.55
2018-08-24T16:46:32.151Z,86.24
2018-08-24T16:49:01.479Z,87.54
2018-08-24T16:51:30.696Z,87.53
2018-08-24T16:53:59.992Z,87.95
2018-08-24T16:56:29.153Z,88.32
2018-08-24T16:58:58.328Z,88.96
2018-08-24T17:01:27.577Z,87.65
2018-08-24T17:03:56.858Z,88.21
2018-08-24T17:06:26.524Z,88.59
2018-08-24T17:08:55.722Z,88.56
2018-08-24T17:11:25.496Z,88.66
2018-08-24T17:13:54.772Z,89.12
2018-08-24T17:16:24.020Z,88.18
2018-08-24T17:18:53.340Z,88.39
2018-08-24T17:21:22.526Z,88.58
2018-08-24T17:23:51.732Z,88.55
2018-08-24T17:26:20.956Z,89.46
2018-08-24T17:28:50.298Z,88.85
2018-08-24T17:31:19.519Z,88.84
2018-08-24T17:33:49.013Z,88.92
2018-08-24T17:36:18.290Z,89.97
2018-08-24T17:38:47.636Z,89.01
2018-08-24T17:41:16.884Z,89.37
2018-08-24T17:43:46.154Z,90.55
2018-08-24T17:46:15.980Z,89.75
2018-08-24T17:48:45.520Z,90.60
2018-08-24T17:51:15.553Z,90.92
2018-08-24T17:53:44.933Z,89.84
2018-08-24T17:56:14.896Z,89.87
2018-08-24T17:58:44.133Z,89.76
2018-08-24T18:01:13.337Z,89.73
2018-08-24T18:03:42.544Z,90.00
2018-08-24T18:06:11.893Z,89.84
2018-08-24T18:08:41.153Z,90.49
2018-08-24T18:11:10.337Z,90.09
2018-08-24T18:13:39.577Z,90.64
2018-08-24T18:16:08.980Z,90.85
2018-08-24T18:18:38.393Z,90.64
2018-08-24T18:21:08.810Z,90.20
2018-08-24T18:23:38.176Z,89.91
2018-08-24T18:26:08.791Z,90.65
2018-08-24T18:28:38.193Z,90.00
2018-08-24T18:31:08.705Z,88.94
2018-08-24T18:33:38.064Z,89.59
2018-08-24T18:36:07.912Z,89.39
2018-08-24T18:38:37.144Z,89.42
2018-08-24T18:41:06.580Z,90.35
2018-08-24T18:43:35.762Z,90.31
2018-08-24T18:46:05.361Z,89.73
2018-08-24T18:48:34.639Z,89.64
2018-08-24T18:51:04.562Z,90.29
2018-08-24T18:53:33.292Z,90.29
2018-08-24T18:56:01.960Z,89.67
2018-08-24T18:58:30.787Z,90.11
2018-08-24T19:00:59.421Z,89.69
2018-08-24T19:03:28.089Z,90.00
2018-08-24T19:05:56.720Z,89.88
2018-08-24T19:08:26.126Z,90.19
2018-08-24T19:11:00.268Z,90.11
2018-08-24T19:13:29.037Z,90.26
2018-08-24T19:15:57.787Z,90.59
2018-08-24T19:18:31.733Z,91.70
2018-08-24T19:21:06.219Z,90.85
2018-08-24T19:23:34.844Z,90.64
2018-08-24T19:26:03.455Z,91.08
2018-08-24T19:28:37.635Z,91.17
2018-08-24T19:31:06.270Z,91.23
2018-08-24T19:33:34.913Z,91.42
2018-08-24T19:36:03.737Z,92.27
2018-08-24T19:38:32.349Z,92.20
2018-08-24T19:41:06.156Z,92.48
2018-08-24T19:43:34.873Z,92.02
2018-08-24T19:46:03.506Z,92.17
2018-08-24T19:48:37.389Z,92.81
2018-08-24T19:51:06.565Z,92.30
2018-08-24T19:53:35.205Z,93.05
2018-08-24T19:56:04.092Z,92.29
2018-08-24T19:58:38.047Z,92.61
2018-08-24T20:01:06.628Z,92.86
2018-08-24T20:03:35.234Z,92.67
2018-08-24T20:06:09.425Z,91.87
2018-08-24T20:08:43.536Z,92.09
2018-08-24T20:11:12.253Z,92.71
2018-08-24T20:13:40.986Z,93.33
2018-08-24T20:16:14.805Z,93.30
2018-08-24T20:18:43.528Z,93.49
2018-08-24T20:21:12.345Z,93.25
2018-08-24T20:23:40.999Z,93.72
2018-08-24T20:26:09.765Z,93.37
2018-08-24T20:28:38.514Z,93.48
2018-08-24T20:31:07.149Z,93.27
2018-08-24T20:33:35.853Z,93.62
2018-08-24T20:36:05.033Z,93.88
2018-08-24T20:38:33.724Z,94.43
2018-08-24T20:41:02.373Z,94.06
2018-08-24T20:43:31.238Z,95.03
2018-08-24T20:46:00.066Z,93.96
2018-08-24T20:48:28.680Z,94.21
2018-08-24T20:50:57.305Z,94.54
2018-08-24T20:53:26.118Z,93.04
2018-08-24T21:16:39.730Z,93.93
2018-08-24T21:19:09.095Z,93.58
2018-08-24T21:21:37.732Z,93.50
2018-08-24T21:24:07.324Z,93.66
2018-08-24T21:26:35.901Z,93.08
2018-08-24T21:29:05.061Z,92.81
2018-08-24T21:31:33.737Z,92.18
2018-08-24T21:34:02.498Z,91.78
2018-08-24T21:36:31.248Z,91.85
2018-08-24T21:38:59.856Z,91.99
2018-08-24T21:41:28.464Z,92.27
2018-08-24T21:43:57.121Z,91.37
2018-08-24T21:46:25.704Z,91.73
2018-08-24T21:48:54.395Z,92.46
2018-08-24T21:51:23.105Z,92.85
2018-08-24T21:53:51.887Z,93.05
2018-08-24T21:56:21.316Z,93.20
2018-08-24T21:58:50.502Z,93.15
2018-08-24T22:01:19.989Z,93.52
2018-08-24T22:03:48.617Z,92.41
2018-08-24T22:06:18.625Z,92.18
2018-08-24T22:08:47.875Z,90.45
2018-08-24T22:11:17.039Z,89.18
2018-08-24T22:13:45.713Z,86.66
2018-08-24T22:16:15.229Z,84.41
2018-08-24T22:18:44.488Z,83.80
2018-08-24T22:21:13.223Z,84.36
2018-08-24T22:23:42.479Z,85.22
2018-08-24T22:26:11.869Z,85.04
2018-08-24T22:28:41.903Z,86.46
2018-08-24T22:31:10.800Z,86.48
2018-08-24T22:33:39.492Z,85.67
2018-08-24T22:36:08.600Z,85.73
2018-08-24T22:38:37.384Z,85.66
2018-08-24T22:41:06.791Z,85.80
2018-08-24T22:43:36.478Z,86.42
2018-08-24T22:46:06.416Z,86.23
2018-08-24T22:48:35.579Z,87.67
2018-08-24T22:51:04.867Z,86.84
2018-08-24T22:53:33.572Z,86.19
2018-08-24T22:56:02.558Z,86.43
2018-08-24T22:58:31.280Z,85.93
2018-08-24T23:00:59.987Z,86.82
2018-08-24T23:03:28.791Z,86.86
2018-08-24T23:05:57.695Z,87.92
2018-08-24T23:08:26.593Z,87.54
2018-08-24T23:10:56.131Z,87.12
2018-08-24T23:13:24.997Z,87.44
2018-08-24T23:15:53.719Z,87.62
2018-08-24T23:18:23.195Z,87.42
2018-08-24T23:20:51.920Z,87.41
2018-08-24T23:23:21.473Z,87.26
2018-08-24T23:25:50.286Z,87.72
2018-08-24T23:28:18.984Z,87.16
2018-08-24T23:30:48.467Z,87.83
2018-08-24T23:33:17.174Z,88.60
2018-08-24T23:35:46.736Z,87.99
2018-08-24T23:38:15.584Z,87.58
2018-08-24T23:40:44.343Z,85.35
2018-08-24T23:43:13.070Z,82.25
2018-08-24T23:45:42.346Z,81.02
2018-08-24T23:48:11.274Z,81.69
2018-08-24T23:50:42.681Z,83.13
2018-08-24T23:53:11.512Z,83.58
2018-08-24T23:55:40.217Z,83.55
2018-08-24T23:58:09.293Z,82.89
